Terminal Aerodrome Forecast
Issued by NWS

Home | Current Version | Previous Version | Text Only | Print | Product List | Glossary On
Versions: 1 2 3 4 5 6 7 8 9 10 11 12 13 14 15 16 17 18
000
FTUS43 KGLD 291720
TAFMCK
TAF
KMCK 291720Z 2918/3018 02018G26KT 3SM -SHRA BR OVC012
     FM292200 01015G22KT 6SM -SHRA OVC020
     FM300000 02013G18KT P6SM VCSH OVC035
     FM300300 36011KT P6SM BKN035
     FM300700 35010KT P6SM SCT010 BKN025
     FM301300 34009KT P6SM SCT030=

USA.gov is the U.S. government's official web portal to all federal, state and local government web resources and services.